Terminal Aerodrome Forecast
Issued by NWS

Home | Current Version | Previous Version | Text Only | Print | Product List | Glossary Off
Versions: 1 2 3 4 5 6 7 8 9 10 11 12

000
FTUS43 KGRB 161700
TAFMTW
TAF
KMTW 161720Z 1618/1718 26008G15KT P6SM SKC
     FM162100 21009G15KT P6SM SKC
     FM170100 24004KT P6SM SKC
     FM171500 25009KT P6SM SCT150=

USA.gov is the U.S. government's official web portal to all federal, state and local government web resources and services.